sensor_id;sensor_type;location;lat;lon;timestamp;pressure;altitude;pressure_sealevel;temperature;humidity
51617;BME280;37697;52.588;13.394;2023-06-04T00:01:36;101751.78;;;8.87;51.66
51617;BME280;37697;52.588;13.394;2023-06-04T00:07:01;101745.58;;;8.76;51.67
51617;BME280;37697;52.588;13.394;2023-06-04T00:12:27;101741.39;;;8.64;51.80
51617;BME280;37697;52.588;13.394;2023-06-04T00:17:53;101736.55;;;8.53;51.96
51617;BME280;37697;52.588;13.394;2023-06-04T00:23:18;101734.98;;;8.43;52.21
51617;BME280;37697;52.588;13.394;2023-06-04T00:28:44;101731.48;;;8.30;52.81
51617;BME280;37697;52.588;13.394;2023-06-04T00:34:11;101730.73;;;8.18;53.04
51617;BME280;37697;52.588;13.394;2023-06-04T00:39:36;101725.65;;;8.07;52.90
51617;BME280;37697;52.588;13.394;2023-06-04T00:45:02;101726.01;;;7.96;53.38
51617;BME280;37697;52.588;13.394;2023-06-04T00:50:28;101724.00;;;7.86;53.66
51617;BME280;37697;52.588;13.394;2023-06-04T00:55:54;101720.23;;;7.75;54.06
51617;BME280;37697;52.588;13.394;2023-06-04T01:01:25;101724.73;;;7.65;54.48
51617;BME280;37697;52.588;13.394;2023-06-04T01:06:45;101724.55;;;7.55;54.81
51617;BME280;37697;52.588;13.394;2023-06-04T01:12:13;101721.04;;;7.45;54.93
51617;BME280;37697;52.588;13.394;2023-06-04T01:17:37;101722.46;;;7.35;55.28
51617;BME280;37697;52.588;13.394;2023-06-04T01:23:23;101720.98;;;7.25;55.57
51617;BME280;37697;52.588;13.394;2023-06-04T01:28:52;101712.28;;;7.16;55.82
51617;BME280;37697;52.588;13.394;2023-06-04T01:34:19;101711.67;;;7.07;56.19
51617;BME280;37697;52.588;13.394;2023-06-04T01:39:39;101714.35;;;7.00;56.48
51617;BME280;37697;52.588;13.394;2023-06-04T01:45:06;101714.07;;;6.91;56.91
51617;BME280;37697;52.588;13.394;2023-06-04T01:50:32;101712.78;;;6.80;57.11
51617;BME280;37697;52.588;13.394;2023-06-04T01:55:58;101709.92;;;6.71;57.35
51617;BME280;37697;52.588;13.394;2023-06-04T02:01:24;101705.98;;;6.63;57.47
51617;BME280;37697;52.588;13.394;2023-06-04T02:06:50;101704.67;;;6.55;57.78
51617;BME280;37697;52.588;13.394;2023-06-04T02:12:16;101700.35;;;6.47;58.05
51617;BME280;37697;52.588;13.394;2023-06-04T02:17:42;101697.45;;;6.39;58.26
51617;BME280;37697;52.588;13.394;2023-06-04T02:23:07;101697.13;;;6.31;58.56
51617;BME280;37697;52.588;13.394;2023-06-04T02:28:33;101693.33;;;6.23;58.93
51617;BME280;37697;52.588;13.394;2023-06-04T02:33:59;101693.80;;;6.14;59.25
51617;BME280;37697;52.588;13.394;2023-06-04T02:39:25;101694.84;;;6.08;59.59
51617;BME280;37697;52.588;13.394;2023-06-04T02:44:51;101700.45;;;6.02;59.75
51617;BME280;37697;52.588;13.394;2023-06-04T02:50:20;101702.36;;;5.99;59.95
51617;BME280;37697;52.588;13.394;2023-06-04T02:55:45;101707.63;;;5.94;59.93
51617;BME280;37697;52.588;13.394;2023-06-04T03:01:18;101705.08;;;5.89;60.34
51617;BME280;37697;52.588;13.394;2023-06-04T03:06:44;101705.19;;;5.86;60.46
51617;BME280;37697;52.588;13.394;2023-06-04T03:12:11;101700.83;;;5.83;60.59
51617;BME280;37697;52.588;13.394;2023-06-04T03:17:37;101701.11;;;5.80;61.03
51617;BME280;37697;52.588;13.394;2023-06-04T03:23:03;101702.85;;;5.77;61.05
51617;BME280;37697;52.588;13.394;2023-06-04T03:28:29;101706.08;;;5.76;61.43
51617;BME280;37697;52.588;13.394;2023-06-04T03:33:54;101705.08;;;5.76;61.62
51617;BME280;37697;52.588;13.394;2023-06-04T03:39:13;101708.46;;;5.77;61.68
51617;BME280;37697;52.588;13.394;2023-06-04T03:44:31;101708.27;;;5.78;62.13
51617;BME280;37697;52.588;13.394;2023-06-04T03:49:57;101709.69;;;5.80;62.56
51617;BME280;37697;52.588;13.394;2023-06-04T03:55:23;101708.00;;;5.84;62.67
51617;BME280;37697;52.588;13.394;2023-06-04T04:00:48;101706.52;;;5.91;62.92
51617;BME280;37697;52.588;13.394;2023-06-04T04:06:14;101708.52;;;5.98;63.34
51617;BME280;37697;52.588;13.394;2023-06-04T04:11:40;101712.61;;;6.04;63.75
51617;BME280;37697;52.588;13.394;2023-06-04T04:17:06;101717.06;;;6.11;64.13
51617;BME280;37697;52.588;13.394;2023-06-04T04:22:32;101718.77;;;6.23;64.41
51617;BME280;37697;52.588;13.394;2023-06-04T04:27:58;101721.95;;;6.42;64.78
51617;BME280;37697;52.588;13.394;2023-06-04T04:33:17;101723.89;;;6.63;64.70
51617;BME280;37697;52.588;13.394;2023-06-04T04:38:43;101723.38;;;6.82;64.56
51617;BME280;37697;52.588;13.394;2023-06-04T04:44:08;101726.28;;;7.04;64.43
51617;BME280;37697;52.588;13.394;2023-06-04T04:49:33;101723.79;;;7.54;63.54
51617;BME280;37697;52.588;13.394;2023-06-04T04:54:58;101721.43;;;8.55;61.75
51617;BME280;37697;52.588;13.394;2023-06-04T05:00:24;101731.20;;;9.35;60.95
51617;BME280;37697;52.588;13.394;2023-06-04T05:05:40;101726.17;;;10.43;59.49
51617;BME280;37697;52.588;13.394;2023-06-04T05:11:06;101729.02;;;11.22;57.75
51617;BME280;37697;52.588;13.394;2023-06-04T05:16:31;101729.73;;;11.31;57.40
51617;BME280;37697;52.588;13.394;2023-06-04T05:21:59;101725.88;;;11.76;56.49
51617;BME280;37697;52.588;13.394;2023-06-04T05:27:25;101730.52;;;12.07;55.92
51617;BME280;37697;52.588;13.394;2023-06-04T05:32:51;101726.96;;;12.27;55.89
51617;BME280;37697;52.588;13.394;2023-06-04T05:38:17;101728.42;;;12.47;55.93
51617;BME280;37697;52.588;13.394;2023-06-04T05:43:43;101732.59;;;12.99;55.32
51617;BME280;37697;52.588;13.394;2023-06-04T05:49:08;101733.33;;;13.65;54.67
51617;BME280;37697;52.588;13.394;2023-06-04T05:54:34;101731.02;;;14.49;52.61
51617;BME280;37697;52.588;13.394;2023-06-04T06:00:00;101731.25;;;14.91;50.48
51617;BME280;37697;52.588;13.394;2023-06-04T06:05:26;101734.48;;;15.08;49.57
51617;BME280;37697;52.588;13.394;2023-06-04T06:10:51;101735.30;;;15.25;49.44
51617;BME280;37697;52.588;13.394;2023-06-04T06:16:18;101739.52;;;15.74;49.36
51617;BME280;37697;52.588;13.394;2023-06-04T06:21:43;101737.48;;;16.04;48.70
51617;BME280;37697;52.588;13.394;2023-06-04T06:27:09;101741.27;;;16.13;47.48
51617;BME280;37697;52.588;13.394;2023-06-04T06:32:35;101744.52;;;16.12;46.80
51617;BME280;37697;52.588;13.394;2023-06-04T06:38:01;101744.61;;;16.30;46.72
51617;BME280;37697;52.588;13.394;2023-06-04T06:43:27;101744.28;;;16.53;45.65
51617;BME280;37697;52.588;13.394;2023-06-04T06:48:45;101749.88;;;16.76;44.81
51617;BME280;37697;52.588;13.394;2023-06-04T06:54:12;101753.81;;;17.11;43.62
51617;BME280;37697;52.588;13.394;2023-06-04T06:59:40;101753.61;;;17.41;42.57
51617;BME280;37697;52.588;13.394;2023-06-04T07:04:57;101749.30;;;17.80;42.38
51617;BME280;37697;52.588;13.394;2023-06-04T07:10:13;101749.54;;;18.19;40.54
51617;BME280;37697;52.588;13.394;2023-06-04T07:15:39;101748.94;;;18.35;39.20
51617;BME280;37697;52.588;13.394;2023-06-04T07:21:05;101748.66;;;18.47;38.89
51617;BME280;37697;52.588;13.394;2023-06-04T07:26:31;101747.08;;;18.60;38.65
51617;BME280;37697;52.588;13.394;2023-06-04T07:31:57;101751.66;;;18.82;38.02
51617;BME280;37697;52.588;13.394;2023-06-04T07:37:23;101748.67;;;19.16;36.91
51617;BME280;37697;52.588;13.394;2023-06-04T07:42:49;101749.50;;;19.11;36.09
51617;BME280;37697;52.588;13.394;2023-06-04T07:48:15;101754.60;;;18.95;35.93
51617;BME280;37697;52.588;13.394;2023-06-04T07:53:42;101756.58;;;19.05;35.44
51617;BME280;37697;52.588;13.394;2023-06-04T07:59:07;101748.32;;;19.09;35.22
51617;BME280;37697;52.588;13.394;2023-06-04T08:04:33;101747.35;;;19.41;34.86
51617;BME280;37697;52.588;13.394;2023-06-04T08:09:59;101749.10;;;19.64;34.48
51617;BME280;37697;52.588;13.394;2023-06-04T08:15:26;101739.86;;;19.94;34.15
51617;BME280;37697;52.588;13.394;2023-06-04T08:20:52;101745.01;;;20.38;33.96
51617;BME280;37697;52.588;13.394;2023-06-04T08:26:20;101745.99;;;20.82;33.09
51617;BME280;37697;52.588;13.394;2023-06-04T08:31:38;101751.34;;;21.12;32.47
51617;BME280;37697;52.588;13.394;2023-06-04T08:36:57;101749.59;;;21.33;31.87
51617;BME280;37697;52.588;13.394;2023-06-04T08:42:29;101750.43;;;21.36;31.57
51617;BME280;37697;52.588;13.394;2023-06-04T08:47:56;101746.19;;;21.34;31.43
51617;BME280;37697;52.588;13.394;2023-06-04T08:53:23;101749.20;;;21.51;31.75
51617;BME280;37697;52.588;13.394;2023-06-04T08:58:49;101751.16;;;21.76;31.06
51617;BME280;37697;52.588;13.394;2023-06-04T09:04:08;101749.00;;;21.96;31.02
51617;BME280;37697;52.588;13.394;2023-06-04T09:09:38;101755.24;;;22.15;30.81
51617;BME280;37697;52.588;13.394;2023-06-04T09:15:16;101755.20;;;22.42;30.37
51617;BME280;37697;52.588;13.394;2023-06-04T09:20:42;101759.23;;;22.68;30.23
51617;BME280;37697;52.588;13.394;2023-06-04T09:26:17;101753.17;;;22.73;29.47
51617;BME280;37697;52.588;13.394;2023-06-04T09:31:46;101757.39;;;22.65;28.83
51617;BME280;37697;52.588;13.394;2023-06-04T09:37:16;101751.84;;;22.55;28.77
51617;BME280;37697;52.588;13.394;2023-06-04T09:42:46;101755.52;;;22.61;28.68
51617;BME280;37697;52.588;13.394;2023-06-04T09:48:04;101756.35;;;22.75;28.39
51617;BME280;37697;52.588;13.394;2023-06-04T09:53:30;101756.61;;;22.72;28.00
51617;BME280;37697;52.588;13.394;2023-06-04T09:58:57;101754.59;;;22.72;28.35
51617;BME280;37697;52.588;13.394;2023-06-04T10:04:14;101748.89;;;22.94;28.24
51617;BME280;37697;52.588;13.394;2023-06-04T10:09:30;101736.31;;;23.15;27.51
51617;BME280;37697;52.588;13.394;2023-06-04T10:14:59;101739.58;;;23.20;27.52
51617;BME280;37697;52.588;13.394;2023-06-04T10:20:27;101741.06;;;23.37;27.14
51617;BME280;37697;52.588;13.394;2023-06-04T10:25:44;101738.96;;;23.50;26.90
51617;BME280;37697;52.588;13.394;2023-06-04T10:31:02;101738.71;;;23.50;26.40
51617;BME280;37697;52.588;13.394;2023-06-04T10:36:28;101736.85;;;23.49;25.80
51617;BME280;37697;52.588;13.394;2023-06-04T10:42:00;101732.80;;;23.40;26.26
51617;BME280;37697;52.588;13.394;2023-06-04T10:47:27;101738.89;;;23.66;25.81
51617;BME280;37697;52.588;13.394;2023-06-04T10:52:54;101738.48;;;23.77;25.91
51617;BME280;37697;52.588;13.394;2023-06-04T10:58:20;101733.90;;;23.65;26.18
51617;BME280;37697;52.588;13.394;2023-06-04T11:03:57;101729.27;;;23.63;26.60
51617;BME280;37697;52.588;13.394;2023-06-04T11:09:24;101726.40;;;23.60;25.98
51617;BME280;37697;52.588;13.394;2023-06-04T11:14:57;101728.63;;;23.70;25.71
51617;BME280;37697;52.588;13.394;2023-06-04T11:20:24;101722.42;;;23.84;25.83
51617;BME280;37697;52.588;13.394;2023-06-04T11:25:53;101722.95;;;24.20;25.86
51617;BME280;37697;52.588;13.394;2023-06-04T11:31:19;101719.96;;;24.46;25.04
51617;BME280;37697;52.588;13.394;2023-06-04T11:36:45;101709.66;;;24.31;24.47
51617;BME280;37697;52.588;13.394;2023-06-04T11:42:11;101711.50;;;24.27;24.37
51617;BME280;37697;52.588;13.394;2023-06-04T11:47:39;101707.65;;;24.46;23.86
51617;BME280;37697;52.588;13.394;2023-06-04T11:53:08;101709.36;;;24.33;24.01
51617;BME280;37697;52.588;13.394;2023-06-04T11:58:35;101712.14;;;24.49;24.72
51617;BME280;37697;52.588;13.394;2023-06-04T12:04:00;101705.73;;;24.79;25.15
51617;BME280;37697;52.588;13.394;2023-06-04T12:09:37;101701.36;;;24.92;24.67
51617;BME280;37697;52.588;13.394;2023-06-04T12:15:04;101694.19;;;25.03;24.72
51617;BME280;37697;52.588;13.394;2023-06-04T12:20:37;101695.45;;;25.23;24.21
51617;BME280;37697;52.588;13.394;2023-06-04T12:26:03;101690.05;;;25.11;24.04
51617;BME280;37697;52.588;13.394;2023-06-04T12:31:29;101687.89;;;25.13;24.19
51617;BME280;37697;52.588;13.394;2023-06-04T12:36:55;101687.98;;;25.47;24.72
51617;BME280;37697;52.588;13.394;2023-06-04T12:42:22;101689.60;;;25.75;24.48
51617;BME280;37697;52.588;13.394;2023-06-04T12:47:47;101683.61;;;26.07;24.19
51617;BME280;37697;52.588;13.394;2023-06-04T12:53:15;101684.50;;;26.07;23.41
51617;BME280;37697;52.588;13.394;2023-06-04T12:58:41;101681.48;;;26.02;22.94
51617;BME280;37697;52.588;13.394;2023-06-04T13:04:07;101679.13;;;26.10;23.60
51617;BME280;37697;52.588;13.394;2023-06-04T13:09:33;101677.66;;;26.33;23.12
51617;BME280;37697;52.588;13.394;2023-06-04T13:14:59;101682.30;;;26.47;22.56
51617;BME280;37697;52.588;13.394;2023-06-04T13:20:25;101675.06;;;25.95;22.16
51617;BME280;37697;52.588;13.394;2023-06-04T13:25:51;101678.77;;;25.87;22.70
51617;BME280;37697;52.588;13.394;2023-06-04T13:31:16;101676.30;;;25.95;22.57
51617;BME280;37697;52.588;13.394;2023-06-04T13:36:25;101673.66;;;25.96;23.11
51617;BME280;37697;52.588;13.394;2023-06-04T13:41:51;101667.13;;;25.95;23.04
51617;BME280;37697;52.588;13.394;2023-06-04T13:47:06;101660.98;;;25.95;22.76
51617;BME280;37697;52.588;13.394;2023-06-04T13:52:15;101659.24;;;25.84;22.19
51617;BME280;37697;52.588;13.394;2023-06-04T13:57:24;101652.98;;;25.78;23.24
51617;BME280;37697;52.588;13.394;2023-06-04T14:02:43;101647.23;;;25.62;22.97
51617;BME280;37697;52.588;13.394;2023-06-04T14:07:51;101644.98;;;25.42;23.09
51617;BME280;37697;52.588;13.394;2023-06-04T14:13:17;101642.45;;;25.34;23.29
51617;BME280;37697;52.588;13.394;2023-06-04T14:18:23;101638.02;;;25.21;23.63
51617;BME280;37697;52.588;13.394;2023-06-04T14:23:38;101636.02;;;25.22;24.29
51617;BME280;37697;52.588;13.394;2023-06-04T14:28:55;101634.70;;;25.15;24.48
51617;BME280;37697;52.588;13.394;2023-06-04T14:34:04;101632.11;;;24.96;24.52
51617;BME280;37697;52.588;13.394;2023-06-04T14:39:23;101634.09;;;24.71;24.48
51617;BME280;37697;52.588;13.394;2023-06-04T14:44:49;101633.19;;;24.60;24.64
51617;BME280;37697;52.588;13.394;2023-06-04T14:50:15;101630.80;;;24.56;24.71
51617;BME280;37697;52.588;13.394;2023-06-04T14:55:41;101628.73;;;24.35;24.89
51617;BME280;37697;52.588;13.394;2023-06-04T15:01:07;101620.92;;;24.34;25.28
51617;BME280;37697;52.588;13.394;2023-06-04T15:06:33;101620.00;;;24.37;25.30
51617;BME280;37697;52.588;13.394;2023-06-04T15:11:58;101613.59;;;24.28;25.02
51617;BME280;37697;52.588;13.394;2023-06-04T15:17:24;101604.98;;;24.18;24.64
51617;BME280;37697;52.588;13.394;2023-06-04T15:22:53;101599.61;;;24.05;24.21
51617;BME280;37697;52.588;13.394;2023-06-04T15:28:19;101599.73;;;23.97;24.28
51617;BME280;37697;52.588;13.394;2023-06-04T15:33:45;101604.05;;;23.93;25.19
51617;BME280;37697;52.588;13.394;2023-06-04T15:39:11;101605.77;;;23.69;25.52
51617;BME280;37697;52.588;13.394;2023-06-04T15:44:36;101602.19;;;23.62;25.39
51617;BME280;37697;52.588;13.394;2023-06-04T15:49:55;101602.82;;;23.53;25.96
51617;BME280;37697;52.588;13.394;2023-06-04T15:55:21;101598.08;;;23.58;25.80
51617;BME280;37697;52.588;13.394;2023-06-04T16:00:46;101598.15;;;23.57;25.80
51617;BME280;37697;52.588;13.394;2023-06-04T16:06:13;101602.69;;;23.47;26.08
51617;BME280;37697;52.588;13.394;2023-06-04T16:11:39;101596.27;;;23.42;26.05
51617;BME280;37697;52.588;13.394;2023-06-04T16:17:05;101592.99;;;23.40;26.36
51617;BME280;37697;52.588;13.394;2023-06-04T16:22:32;101587.33;;;23.30;26.82
51617;BME280;37697;52.588;13.394;2023-06-04T16:27:58;101582.61;;;23.30;27.09
51617;BME280;37697;52.588;13.394;2023-06-04T16:33:24;101574.72;;;23.29;26.79
51617;BME280;37697;52.588;13.394;2023-06-04T16:38:50;101571.42;;;23.28;26.96
51617;BME280;37697;52.588;13.394;2023-06-04T16:44:17;101565.34;;;23.21;26.43
51617;BME280;37697;52.588;13.394;2023-06-04T16:49:43;101564.71;;;23.15;26.33
51617;BME280;37697;52.588;13.394;2023-06-04T16:55:09;101565.92;;;23.04;26.83
51617;BME280;37697;52.588;13.394;2023-06-04T17:00:35;101566.73;;;22.98;27.11
51617;BME280;37697;52.588;13.394;2023-06-04T17:06:01;101561.46;;;22.91;27.01
51617;BME280;37697;52.588;13.394;2023-06-04T17:11:27;101562.20;;;22.88;26.93
51617;BME280;37697;52.588;13.394;2023-06-04T17:16:53;101571.60;;;22.81;27.12
51617;BME280;37697;52.588;13.394;2023-06-04T17:22:00;101571.23;;;22.72;27.13
51617;BME280;37697;52.588;13.394;2023-06-04T17:27:25;101573.21;;;22.60;27.12
51617;BME280;37697;52.588;13.394;2023-06-04T17:32:44;101574.53;;;22.51;27.33
51617;BME280;37697;52.588;13.394;2023-06-04T17:38:13;101570.30;;;22.42;27.44
51617;BME280;37697;52.588;13.394;2023-06-04T17:43:38;101579.42;;;22.31;27.46
51617;BME280;37697;52.588;13.394;2023-06-04T17:49:07;101582.94;;;22.16;27.45
51617;BME280;37697;52.588;13.394;2023-06-04T17:54:33;101578.35;;;22.02;27.55
51617;BME280;37697;52.588;13.394;2023-06-04T17:59:59;101580.21;;;21.88;27.97
51617;BME280;37697;52.588;13.394;2023-06-04T18:05:16;101584.08;;;21.72;28.25
51617;BME280;37697;52.588;13.394;2023-06-04T18:10:42;101583.64;;;21.59;28.32
51617;BME280;37697;52.588;13.394;2023-06-04T18:16:08;101587.23;;;21.48;28.46
51617;BME280;37697;52.588;13.394;2023-06-04T18:21:29;101589.27;;;21.32;28.93
51617;BME280;37697;52.588;13.394;2023-06-04T18:26:55;101591.30;;;21.14;28.85
51617;BME280;37697;52.588;13.394;2023-06-04T18:32:21;101598.81;;;20.98;29.05
51617;BME280;37697;52.588;13.394;2023-06-04T18:37:42;101600.45;;;20.83;29.37
51617;BME280;37697;52.588;13.394;2023-06-04T18:43:08;101606.58;;;20.69;29.95
51617;BME280;37697;52.588;13.394;2023-06-04T18:48:34;101605.23;;;20.53;30.23
51617;BME280;37697;52.588;13.394;2023-06-04T18:53:59;101611.21;;;20.37;31.23
51617;BME280;37697;52.588;13.394;2023-06-04T18:59:25;101615.80;;;20.17;31.85
51617;BME280;37697;52.588;13.394;2023-06-04T19:04:49;101618.45;;;19.89;32.28
51617;BME280;37697;52.588;13.394;2023-06-04T19:10:16;101620.70;;;19.69;33.48
51617;BME280;37697;52.588;13.394;2023-06-04T19:15:21;101631.92;;;19.49;33.78
51617;BME280;37697;52.588;13.394;2023-06-04T19:20:42;101633.42;;;19.27;34.55
51617;BME280;37697;52.588;13.394;2023-06-04T19:26:08;101636.38;;;19.02;35.45
51617;BME280;37697;52.588;13.394;2023-06-04T19:31:26;101638.75;;;18.78;35.92
51617;BME280;37697;52.588;13.394;2023-06-04T19:36:52;101643.09;;;18.55;36.28
51617;BME280;37697;52.588;13.394;2023-06-04T19:42:17;101649.98;;;18.34;36.90
51617;BME280;37697;52.588;13.394;2023-06-04T19:47:43;101656.03;;;18.12;37.33
51617;BME280;37697;52.588;13.394;2023-06-04T19:53:08;101663.13;;;17.93;37.75
51617;BME280;37697;52.588;13.394;2023-06-04T19:58:34;101670.67;;;17.72;38.21
51617;BME280;37697;52.588;13.394;2023-06-04T20:04:00;101673.77;;;17.52;38.44
51617;BME280;37697;52.588;13.394;2023-06-04T20:09:25;101678.84;;;17.29;38.68
51617;BME280;37697;52.588;13.394;2023-06-04T20:14:47;101687.90;;;17.06;38.94
51617;BME280;37697;52.588;13.394;2023-06-04T20:20:13;101686.91;;;16.80;39.35
51617;BME280;37697;52.588;13.394;2023-06-04T20:25:39;101686.70;;;16.62;39.92
51617;BME280;37697;52.588;13.394;2023-06-04T20:31:05;101683.83;;;16.37;40.30
51617;BME280;37697;52.588;13.394;2023-06-04T20:36:31;101688.48;;;16.19;40.68
51617;BME280;37697;52.588;13.394;2023-06-04T20:41:57;101691.05;;;16.01;40.92
51617;BME280;37697;52.588;13.394;2023-06-04T20:47:22;101691.58;;;15.83;41.41
51617;BME280;37697;52.588;13.394;2023-06-04T20:52:49;101699.96;;;15.65;41.82
51617;BME280;37697;52.588;13.394;2023-06-04T20:58:14;101700.55;;;15.47;42.16
51617;BME280;37697;52.588;13.394;2023-06-04T21:03:40;101706.81;;;15.28;42.63
51617;BME280;37697;52.588;13.394;2023-06-04T21:09:07;101702.49;;;15.08;43.30
51617;BME280;37697;52.588;13.394;2023-06-04T21:14:31;101704.79;;;14.88;43.71
51617;BME280;37697;52.588;13.394;2023-06-04T21:19:57;101709.76;;;14.70;44.28
51617;BME280;37697;52.588;13.394;2023-06-04T21:25:23;101708.89;;;14.54;44.88
51617;BME280;37697;52.588;13.394;2023-06-04T21:30:48;101718.14;;;14.36;45.42
51617;BME280;37697;52.588;13.394;2023-06-04T21:36:15;101719.69;;;14.20;45.76
51617;BME280;37697;52.588;13.394;2023-06-04T21:41:41;101721.27;;;14.03;46.20
51617;BME280;37697;52.588;13.394;2023-06-04T21:47:07;101721.81;;;13.83;46.94
51617;BME280;37697;52.588;13.394;2023-06-04T21:52:33;101724.98;;;13.72;46.81
51617;BME280;37697;52.588;13.394;2023-06-04T21:57:58;101734.19;;;13.60;47.10
51617;BME280;37697;52.588;13.394;2023-06-04T22:03:24;101731.33;;;13.46;47.42
51617;BME280;37697;52.588;13.394;2023-06-04T22:08:50;101735.33;;;13.33;47.81
51617;BME280;37697;52.588;13.394;2023-06-04T22:14:16;101731.63;;;13.18;48.25
51617;BME280;37697;52.588;13.394;2023-06-04T22:19:42;101729.64;;;13.01;48.71
51617;BME280;37697;52.588;13.394;2023-06-04T22:25:09;101733.91;;;12.85;49.04
51617;BME280;37697;52.588;13.394;2023-06-04T22:30:23;101730.81;;;12.72;49.35
51617;BME280;37697;52.588;13.394;2023-06-04T22:35:49;101729.58;;;12.59;49.61
51617;BME280;37697;52.588;13.394;2023-06-04T22:41:15;101726.72;;;12.46;50.21
51617;BME280;37697;52.588;13.394;2023-06-04T22:46:40;101728.85;;;12.32;50.56
51617;BME280;37697;52.588;13.394;2023-06-04T22:52:07;101730.61;;;12.21;50.89
51617;BME280;37697;52.588;13.394;2023-06-04T22:57:33;101731.17;;;12.07;51.35
51617;BME280;37697;52.588;13.394;2023-06-04T23:02:58;101725.44;;;11.93;51.83
51617;BME280;37697;52.588;13.394;2023-06-04T23:08:24;101729.80;;;11.82;52.20
51617;BME280;37697;52.588;13.394;2023-06-04T23:13:50;101728.33;;;11.70;52.19
51617;BME280;37697;52.588;13.394;2023-06-04T23:19:16;101728.45;;;11.61;52.52
51617;BME280;37697;52.588;13.394;2023-06-04T23:24:41;101733.92;;;11.50;53.16
51617;BME280;37697;52.588;13.394;2023-06-04T23:30:00;101739.64;;;11.38;53.49
51617;BME280;37697;52.588;13.394;2023-06-04T23:35:26;101746.20;;;11.29;53.75
51617;BME280;37697;52.588;13.394;2023-06-04T23:40:52;101742.99;;;11.17;54.02
51617;BME280;37697;52.588;13.394;2023-06-04T23:46:18;101747.35;;;11.04;54.38
51617;BME280;37697;52.588;13.394;2023-06-04T23:51:44;101745.06;;;10.95;54.47
51617;BME280;37697;52.588;13.394;2023-06-04T23:57:09;101745.65;;;10.86;54.89
